Time;durP1;ratioP1;P1;durP2;ratioP2;P2;SDS_P1;SDS_P2;PMS_P1;PMS_P2;Temp;Humidity;BMP_temperature;BMP_pressure;BME280_temperature;BME280_humidity;BME280_pressure;Samples;Min_cycle;Max_cycle;Signal;HPM_P1;HPM_P2
2022/07/28 00:00:28;;;;;;;38.92;35.13;;;22.00;53.40;;;;;;5049425;28;20379;-81
2022/07/28 00:02:54;;;;;;;37.30;33.70;;;21.80;54.40;;;;;;5049754;28;20059;-80
2022/07/28 00:05:20;;;;;;;37.08;33.25;;;21.60;54.60;;;;;;5051201;28;20052;-81
2022/07/28 00:07:46;;;;;;;35.83;32.30;;;21.60;55.10;;;;;;5051123;28;20025;-80
2022/07/28 00:10:12;;;;;;;37.38;33.53;;;21.60;54.90;;;;;;5051054;28;20033;-81
2022/07/28 00:12:38;;;;;;;35.95;32.47;;;21.70;54.60;;;;;;5033176;28;20483;-81
2022/07/28 00:15:05;;;;;;;36.80;33.15;;;21.80;54.50;;;;;;5050796;28;20047;-80
2022/07/28 00:17:31;;;;;;;36.90;33.30;;;21.60;55.00;;;;;;5049937;28;20059;-80
2022/07/28 00:19:57;;;;;;;35.97;32.33;;;21.60;55.20;;;;;;5051062;28;20041;-80
2022/07/28 00:22:23;;;;;;;35.80;32.08;;;21.70;55.00;;;;;;5051271;28;20060;-80
2022/07/28 00:24:49;;;;;;;36.33;32.55;;;21.80;54.90;;;;;;5049630;28;20472;-80
2022/07/28 00:27:16;;;;;;;36.15;32.50;;;21.80;55.00;;;;;;5050974;28;20031;-80
2022/07/28 00:29:42;;;;;;;35.67;32.10;;;21.70;55.20;;;;;;5050843;28;20036;-80
2022/07/28 00:32:09;;;;;;;36.13;32.53;;;21.70;54.90;;;;;;5050717;28;20033;-81
2022/07/28 00:34:35;;;;;;;36.70;32.95;;;21.80;54.90;;;;;;5049227;28;20376;-81
2022/07/28 00:37:01;;;;;;;34.83;31.35;;;21.80;54.80;;;;;;5049653;28;20387;-80
2022/07/28 00:39:27;;;;;;;35.33;31.80;;;21.80;54.90;;;;;;5036924;28;20053;-80
2022/07/28 00:41:53;;;;;;;34.80;31.48;;;22.00;54.40;;;;;;5031092;28;20037;-80
2022/07/28 00:44:19;;;;;;;33.65;30.17;;;22.10;54.20;;;;;;5040236;28;20472;-80
2022/07/28 00:46:45;;;;;;;32.17;29.05;;;22.10;53.60;;;;;;5050431;28;20056;-80
2022/07/28 00:49:13;;;;;;;28.85;26.35;;;22.10;54.00;;;;;;5053762;28;20025;-80
2022/07/28 00:51:39;;;;;;;29.90;26.83;;;22.10;54.00;;;;;;5037205;28;20033;-81
2022/07/28 00:54:05;;;;;;;28.98;26.48;;;22.00;54.70;;;;;;5054373;28;20040;-82
2022/07/28 00:56:32;;;;;;;29.83;26.83;;;22.00;54.80;;;;;;5037162;28;20491;-80
2022/07/28 00:58:58;;;;;;;29.15;26.58;;;21.90;55.10;;;;;;5053577;28;20037;-81
2022/07/28 01:01:24;;;;;;;27.10;24.73;;;21.90;55.00;;;;;;5054261;28;20044;-80
2022/07/28 01:04:01;;;;;;;27.33;24.73;;;21.80;55.90;;;;;;5053549;28;20037;-80
2022/07/28 01:06:52;;;;;;;24.83;22.73;;;21.80;55.40;;;;;;5054378;28;20490;-80
2022/07/28 01:09:28;;;;;;;;;;;21.80;55.90;;;;;;5053901;28;20036;-80
2022/07/28 01:12:04;;;;;;;31.98;29.13;;;21.50;56.30;;;;;;5053399;28;20304;-81
2022/07/28 01:14:46;;;;;;;29.23;26.98;;;21.60;56.30;;;;;;5053381;28;20024;-80
2022/07/28 01:17:40;;;;;;;28.30;25.75;;;21.70;56.20;;;;;;5052680;28;20033;-80
2022/07/28 01:20:17;;;;;;;30.10;27.50;;;21.70;56.00;;;;;;5054540;28;20467;-81
2022/07/28 01:23:01;;;;;;;25.25;23.35;;;21.90;55.50;;;;;;5020645;28;20043;-81
2022/07/28 01:25:56;;;;;;;25.58;23.02;;;21.90;55.20;;;;;;5037003;28;20446;-80
2022/07/28 01:28:41;;;;;;;23.55;21.85;;;21.90;55.70;;;;;;5037976;28;20025;-81
2022/07/28 01:31:08;;;;;;;21.98;20.65;;;21.80;55.80;;;;;;5037825;28;20059;-80
2022/07/28 01:33:37;;;;;;;23.33;21.52;;;21.70;55.90;;;;;;5052865;28;20033;-80
2022/07/28 01:36:12;;;;;;;22.65;20.98;;;21.60;56.80;;;;;;5034006;28;20025;-80
2022/07/28 01:38:38;;;;;;;22.48;20.95;;;21.50;57.00;;;;;;5039513;28;20021;-80
2022/07/28 01:41:06;;;;;;;22.70;21.30;;;21.50;56.90;;;;;;5052881;28;20036;-80
2022/07/28 01:43:33;;;;;;;22.50;21.20;;;21.40;57.60;;;;;;5048532;28;20383;-80
2022/07/28 01:45:59;;;;;;;22.73;21.27;;;21.30;57.70;;;;;;5045156;28;20068;-80
2022/07/28 01:48:25;;;;;;;20.55;18.70;;;21.30;57.60;;;;;;5052701;28;20033;-80
2022/07/28 01:50:52;;;;;;;22.98;21.48;;;21.30;57.60;;;;;;5052458;28;20040;-81
2022/07/28 01:53:18;;;;;;;23.55;21.85;;;21.40;57.60;;;;;;5035690;28;20506;-81
2022/07/28 01:55:44;;;;;;;23.60;22.20;;;21.40;57.60;;;;;;5052340;28;20041;-80
2022/07/28 01:58:11;;;;;;;23.65;22.27;;;21.30;57.70;;;;;;5052056;28;20029;-81
2022/07/28 02:00:37;;;;;;;23.88;22.38;;;21.20;57.90;;;;;;5051943;28;20049;-80
2022/07/28 02:03:05;;;;;;;22.92;21.13;;;21.20;58.30;;;;;;5053505;28;20465;-80
2022/07/28 02:05:33;;;;;;;22.33;20.98;;;21.10;58.50;;;;;;5051899;28;20299;-80
2022/07/28 02:08:00;;;;;;;22.30;20.80;;;20.90;59.10;;;;;;5052571;28;20021;-81
2022/07/28 02:10:26;;;;;;;19.90;18.60;;;20.80;59.40;;;;;;5052301;28;20475;-80
2022/07/28 02:12:53;;;;;;;22.17;20.52;;;20.80;59.40;;;;;;5052479;28;20029;-80
2022/07/28 02:15:20;;;;;;;20.55;19.23;;;20.90;59.20;;;;;;5052089;28;20029;-80
2022/07/28 02:17:46;;;;;;;20.90;19.20;;;21.10;58.60;;;;;;5035404;28;20505;-80
2022/07/28 02:20:13;;;;;;;20.67;19.17;;;21.20;58.40;;;;;;5051830;28;20036;-81
2022/07/28 02:22:39;;;;;;;20.95;18.85;;;21.30;58.10;;;;;;5053346;28;20044;-80
2022/07/28 02:25:06;;;;;;;20.85;19.50;;;21.20;58.40;;;;;;5051901;28;20044;-80
2022/07/28 02:27:35;;;;;;;21.73;20.33;;;21.30;58.60;;;;;;5052016;28;20029;-80
2022/07/28 02:30:03;;;;;;;22.83;21.42;;;21.40;58.00;;;;;;5051710;28;20041;-80
2022/07/28 02:32:32;;;;;;;22.00;20.40;;;21.40;58.10;;;;;;5050943;28;20022;-80
2022/07/28 02:35:03;;;;;;;21.50;19.98;;;21.50;57.90;;;;;;5052506;28;20025;-80
2022/07/28 02:37:37;;;;;;;21.65;20.10;;;21.50;58.60;;;;;;5051934;28;20494;-80
2022/07/28 02:40:04;;;;;;;21.08;19.75;;;21.30;58.10;;;;;;5051597;28;20033;-80
2022/07/28 02:42:31;;;;;;;22.92;21.27;;;21.20;58.60;;;;;;5051381;28;20041;-80
2022/07/28 02:44:58;;;;;;;24.08;21.83;;;21.20;58.70;;;;;;5039869;28;20529;-80
2022/07/28 02:47:26;;;;;;;22.52;20.92;;;21.10;59.10;;;;;;5051247;28;20040;-80
2022/07/28 02:49:53;;;;;;;22.98;21.23;;;21.10;59.20;;;;;;5051169;28;20025;-81
2022/07/28 02:52:21;;;;;;;23.60;22.00;;;21.20;58.50;;;;;;5051436;28;20364;-80
2022/07/28 02:54:48;;;;;;;24.42;22.52;;;21.30;58.30;;;;;;5051487;28;20448;-81
2022/07/28 02:57:14;;;;;;;25.20;23.38;;;21.30;58.30;;;;;;5051294;28;20491;-81
2022/07/28 02:59:40;;;;;;;23.58;21.67;;;21.30;58.50;;;;;;5051296;28;20029;-80
2022/07/28 03:02:06;;;;;;;23.02;21.33;;;21.20;58.60;;;;;;5050315;28;20502;-81
2022/07/28 03:07:17;;;;;;;23.13;21.52;;;21.30;58.50;;;;;;5057946;28;20108;-81
2022/07/28 03:09:45;;;;;;;23.05;21.35;;;21.30;58.80;;;;;;5050458;28;20029;-80
2022/07/28 03:12:11;;;;;;;22.25;20.50;;;21.30;58.90;;;;;;5052339;28;20029;-81
2022/07/28 03:14:38;;;;;;;20.02;18.20;;;21.00;59.40;;;;;;5052170;28;20029;-81
2022/07/28 03:17:04;;;;;;;18.50;16.95;;;20.80;60.40;;;;;;5051485;28;20031;-81
2022/07/28 03:19:30;;;;;;;20.35;18.95;;;20.70;60.80;;;;;;5052150;28;20040;-81
2022/07/28 03:21:56;;;;;;;23.40;21.35;;;20.60;60.80;;;;;;5052333;28;20041;-81
2022/07/28 03:24:24;;;;;;;30.15;28.35;;;20.60;61.20;;;;;;5051919;28;20036;-81
2022/07/28 03:26:59;;;;;;;21.40;20.00;;;20.40;61.50;;;;;;5050280;28;20055;-81
2022/07/28 03:29:25;;;;;;;23.30;21.80;;;20.30;61.50;;;;;;5050782;28;20072;-81
2022/07/28 03:31:53;;;;;;;28.13;26.33;;;20.40;61.50;;;;;;5049802;28;20033;-81
2022/07/28 03:34:19;;;;;;;29.70;27.48;;;20.30;61.90;;;;;;5050347;28;20387;-81
2022/07/28 03:36:45;;;;;;;30.50;28.52;;;20.10;62.20;;;;;;5050711;28;20467;-81
2022/07/28 03:39:12;;;;;;;25.65;24.23;;;20.00;62.70;;;;;;5038991;28;20030;-80
2022/07/28 03:41:38;;;;;;;24.75;23.05;;;20.10;62.00;;;;;;5014135;28;20050;-80
2022/07/28 03:44:05;;;;;;;27.52;25.83;;;20.00;62.20;;;;;;5040182;28;20029;-81
2022/07/28 03:46:31;;;;;;;26.30;24.50;;;20.10;62.50;;;;;;5050531;28;20403;-81
2022/07/28 03:48:57;;;;;;;36.25;34.25;;;20.20;61.90;;;;;;5033823;28;20036;-80
2022/07/28 03:51:24;;;;;;;34.70;32.83;;;20.40;61.10;;;;;;5051568;28;20379;-81
2022/07/28 03:53:50;;;;;;;33.65;31.50;;;20.50;61.10;;;;;;5049826;28;20311;-80
2022/07/28 03:56:16;;;;;;;25.95;24.40;;;20.30;61.60;;;;;;5049971;28;20384;-81
2022/07/28 03:58:42;;;;;;;28.25;26.48;;;20.30;61.30;;;;;;5050225;28;20036;-81
2022/07/28 04:01:08;;;;;;;26.45;25.05;;;20.20;61.60;;;;;;5050848;28;20368;-81
2022/07/28 04:03:34;;;;;;;23.75;22.25;;;20.10;62.10;;;;;;5051339;28;20048;-80
2022/07/28 04:06:00;;;;;;;23.85;22.05;;;20.00;62.10;;;;;;5049940;28;20041;-80
2022/07/28 04:08:27;;;;;;;22.13;20.70;;;20.00;61.90;;;;;;5050075;28;20356;-81
2022/07/28 04:10:53;;;;;;;24.75;23.02;;;20.00;62.10;;;;;;5049930;28;20127;-81
2022/07/28 04:13:19;;;;;;;20.08;18.65;;;19.80;62.30;;;;;;5051021;28;20029;-81
2022/07/28 04:15:45;;;;;;;22.77;21.45;;;19.80;62.40;;;;;;5048404;28;20497;-81
2022/07/28 04:18:11;;;;;;;22.42;20.95;;;19.80;62.30;;;;;;5051235;28;20040;-81
2022/07/28 04:20:37;;;;;;;23.08;21.55;;;20.00;61.90;;;;;;5051036;28;20029;-81
2022/07/28 04:23:03;;;;;;;23.48;22.05;;;20.10;61.60;;;;;;5051154;28;20028;-81
2022/07/28 04:25:29;;;;;;;22.77;21.48;;;20.20;60.80;;;;;;5033442;28;20036;-81
2022/07/28 04:27:56;;;;;;;23.25;21.67;;;20.30;60.10;;;;;;5051111;28;20036;-81
2022/07/28 04:30:26;;;;;;;23.20;21.60;;;20.20;60.30;;;;;;5050403;28;20040;-80
2022/07/28 04:32:53;;;;;;;22.27;20.63;;;20.20;60.60;;;;;;5049958;28;20040;-81
2022/07/28 04:35:19;;;;;;;21.75;20.10;;;20.20;60.10;;;;;;5037367;28;20036;-81
2022/07/28 04:37:47;;;;;;;20.98;19.63;;;20.20;59.70;;;;;;5031816;28;20432;-81
2022/07/28 04:40:13;;;;;;;21.42;20.23;;;20.30;59.30;;;;;;5050842;28;20395;-81
2022/07/28 04:42:39;;;;;;;22.52;21.05;;;20.40;58.90;;;;;;5049515;28;20028;-81
2022/07/28 04:45:06;;;;;;;23.00;21.30;;;20.30;58.40;;;;;;5037362;28;20393;-80
2022/07/28 04:47:33;;;;;;;25.08;23.55;;;20.30;58.60;;;;;;5049638;28;20044;-81
2022/07/28 04:49:59;;;;;;;21.40;20.10;;;20.20;58.40;;;;;;5049749;28;20025;-80
2022/07/28 04:52:25;;;;;;;21.40;20.08;;;20.10;58.10;;;;;;5050740;28;20040;-81
2022/07/28 04:54:52;;;;;;;20.50;19.17;;;19.90;58.20;;;;;;5049477;28;20043;-81
2022/07/28 04:57:18;;;;;;;19.65;18.30;;;19.80;58.20;;;;;;5050791;28;20032;-80
2022/07/28 04:59:44;;;;;;;18.20;16.95;;;19.70;58.30;;;;;;5049004;28;20048;-80
2022/07/28 05:02:11;;;;;;;19.00;17.67;;;19.60;57.80;;;;;;5049076;28;20069;-81
2022/07/28 05:04:37;;;;;;;18.63;17.42;;;19.60;58.10;;;;;;5050622;28;20025;-81
2022/07/28 05:07:04;;;;;;;17.95;16.83;;;19.70;57.70;;;;;;5049530;28;20037;-80
2022/07/28 05:09:30;;;;;;;19.00;17.73;;;19.60;57.70;;;;;;5049453;28;20028;-81
2022/07/28 05:11:57;;;;;;;21.70;20.40;;;19.60;58.00;;;;;;5049324;28;20045;-81
2022/07/28 05:14:23;;;;;;;19.08;17.98;;;19.60;57.20;;;;;;5048929;28;20040;-80
2022/07/28 05:16:49;;;;;;;22.98;21.67;;;19.60;57.60;;;;;;5049172;28;20029;-81
2022/07/28 05:19:16;;;;;;;24.75;23.10;;;19.60;57.10;;;;;;5050550;28;20362;-80
2022/07/28 05:21:42;;;;;;;21.65;20.25;;;19.60;57.00;;;;;;5050367;28;20546;-80
2022/07/28 05:24:08;;;;;;;25.20;23.77;;;19.60;57.70;;;;;;5050759;28;20048;-81
2022/07/28 05:26:34;;;;;;;25.02;23.52;;;19.60;57.30;;;;;;5049051;28;20388;-80
2022/07/28 05:29:00;;;;;;;25.73;24.20;;;19.40;57.60;;;;;;5032154;28;20518;-81
2022/07/28 05:31:26;;;;;;;25.98;24.52;;;19.50;57.50;;;;;;5049973;28;20064;-81
2022/07/28 05:33:52;;;;;;;24.15;22.33;;;19.40;57.40;;;;;;5049340;28;20478;-80
2022/07/28 05:36:18;;;;;;;23.75;22.15;;;19.30;57.90;;;;;;5034496;28;20037;-80
2022/07/28 05:38:44;;;;;;;25.63;24.02;;;19.20;57.90;;;;;;5032952;28;20364;-81
2022/07/28 05:41:11;;;;;;;28.48;26.77;;;19.20;57.70;;;;;;5034027;28;20036;-80
2022/07/28 05:43:37;;;;;;;26.95;25.30;;;19.20;57.70;;;;;;5037189;28;20033;-80
2022/07/28 05:46:03;;;;;;;25.85;24.00;;;19.20;57.60;;;;;;5032393;28;20104;-80
2022/07/28 05:48:29;;;;;;;25.35;23.70;;;19.40;57.20;;;;;;5032925;28;20025;-80
2022/07/28 05:50:56;;;;;;;26.40;24.38;;;19.40;57.20;;;;;;5032724;28;20060;-80
2022/07/28 05:53:22;;;;;;;24.38;22.73;;;19.40;57.30;;;;;;5032875;28;20494;-81
2022/07/28 05:55:48;;;;;;;24.17;22.40;;;19.40;57.50;;;;;;5033792;28;20036;-81
2022/07/28 05:58:14;;;;;;;24.10;22.65;;;19.40;57.70;;;;;;5033642;28;20044;-81
2022/07/28 06:00:41;;;;;;;25.67;23.40;;;19.30;57.50;;;;;;5033162;28;20041;-81
2022/07/28 06:03:07;;;;;;;24.55;23.15;;;19.20;57.80;;;;;;5032237;28;20038;-81
2022/07/28 06:05:35;;;;;;;23.92;22.27;;;19.20;57.80;;;;;;5033501;28;20021;-81
2022/07/28 06:08:01;;;;;;;24.17;22.65;;;19.20;57.90;;;;;;5033777;28;20376;-81
2022/07/28 06:10:57;;;;;;;24.45;22.83;;;19.30;57.80;;;;;;5032306;28;20030;-81
2022/07/28 06:13:14;;;;;;;26.10;23.95;;;19.30;57.20;;;;;;5033192;28;20034;-81
2022/07/28 06:15:40;;;;;;;24.58;22.83;;;19.30;57.40;;;;;;5048074;28;20030;-81
2022/07/28 06:18:06;;;;;;;24.88;23.17;;;19.30;57.20;;;;;;5015436;28;20034;-81
2022/07/28 06:20:32;;;;;;;24.77;22.73;;;19.30;57.10;;;;;;5033361;28;20032;-81
2022/07/28 06:22:58;;;;;;;23.45;22.15;;;19.40;57.20;;;;;;5033286;28;20037;-81
2022/07/28 06:25:26;;;;;;;23.77;22.50;;;19.40;57.30;;;;;;5048457;28;20418;-81
2022/07/28 06:27:57;;;;;;;23.13;21.70;;;19.40;56.90;;;;;;5033230;28;20042;-81
2022/07/28 06:30:23;;;;;;;22.13;20.80;;;19.40;56.70;;;;;;5030969;28;20041;-82
2022/07/28 06:32:49;;;;;;;24.17;22.75;;;19.40;56.70;;;;;;5032248;28;20021;-81
2022/07/28 06:35:15;;;;;;;22.58;21.02;;;19.30;57.00;;;;;;5045107;28;20044;-81
2022/07/28 06:37:42;;;;;;;23.67;21.80;;;19.30;57.20;;;;;;5053115;28;20396;-81
2022/07/28 06:40:10;;;;;;;22.90;21.48;;;19.30;57.40;;;;;;5033659;28;20468;-82
2022/07/28 06:42:37;;;;;;;22.58;21.20;;;19.40;57.40;;;;;;5031641;28;20392;-79
2022/07/28 06:45:04;;;;;;;20.92;19.52;;;19.50;57.20;;;;;;5047653;28;20381;-80
2022/07/28 06:47:30;;;;;;;20.77;19.42;;;19.70;56.70;;;;;;5052739;28;20403;-80
2022/07/28 06:49:56;;;;;;;22.25;21.13;;;19.60;56.80;;;;;;5052700;28;20036;-81
2022/07/28 06:52:23;;;;;;;23.08;21.75;;;19.60;57.10;;;;;;5034808;28;20028;-80
2022/07/28 06:54:50;;;;;;;22.98;21.58;;;19.90;56.80;;;;;;5051265;28;20056;-80
2022/07/28 06:57:17;;;;;;;20.70;19.40;;;20.10;56.50;;;;;;5050980;28;20044;-80
2022/07/28 06:59:43;;;;;;;22.80;21.38;;;20.20;56.40;;;;;;5052603;28;20032;-80
2022/07/28 07:02:09;;;;;;;23.75;22.13;;;20.00;56.80;;;;;;5052030;28;20042;-81
2022/07/28 07:04:36;;;;;;;23.02;21.73;;;19.70;57.50;;;;;;5052723;28;20033;-80
2022/07/28 07:07:02;;;;;;;23.92;22.70;;;19.80;57.50;;;;;;5051063;28;20036;-80
2022/07/28 07:09:28;;;;;;;24.20;22.70;;;19.90;57.70;;;;;;5050890;28;20032;-80
2022/07/28 07:11:54;;;;;;;24.50;22.80;;;19.90;57.10;;;;;;5034595;28;20364;-80
2022/07/28 07:14:20;;;;;;;21.85;20.45;;;19.90;57.10;;;;;;5051025;28;20475;-80
2022/07/28 07:16:47;;;;;;;23.60;21.80;;;20.00;56.90;;;;;;5051797;28;20044;-80
2022/07/28 07:19:13;;;;;;;23.02;21.52;;;19.90;56.90;;;;;;5052160;28;20036;-80
2022/07/28 07:21:39;;;;;;;19.45;18.35;;;20.00;56.50;;;;;;5050845;28;20439;-80
2022/07/28 07:24:05;;;;;;;18.73;17.60;;;20.00;56.50;;;;;;5051920;28;20029;-81
2022/07/28 07:26:31;;;;;;;18.17;17.08;;;20.10;56.40;;;;;;5051932;28;20044;-80
2022/07/28 07:28:58;;;;;;;18.25;17.25;;;20.20;55.80;;;;;;5052257;28;20032;-80
2022/07/28 07:31:24;;;;;;;18.40;17.30;;;20.10;55.90;;;;;;5051310;28;20048;-80
2022/07/28 07:33:50;;;;;;;18.58;17.48;;;20.10;56.40;;;;;;5016550;28;20420;-81
2022/07/28 07:36:16;;;;;;;18.08;16.85;;;20.30;56.00;;;;;;5031895;28;20045;-80
2022/07/28 07:38:44;;;;;;;18.40;17.35;;;20.40;55.90;;;;;;5037683;28;20459;-81
2022/07/28 07:41:11;;;;;;;18.50;17.35;;;20.50;55.50;;;;;;5050574;28;20115;-81
2022/07/28 07:43:37;;;;;;;19.10;17.90;;;20.40;55.90;;;;;;5046785;28;20029;-80
2022/07/28 07:46:05;;;;;;;18.98;17.85;;;20.40;55.90;;;;;;5043504;28;20522;-81
2022/07/28 07:48:31;;;;;;;18.95;17.25;;;20.50;55.90;;;;;;5051662;28;20399;-80
2022/07/28 07:50:58;;;;;;;19.08;17.77;;;20.50;55.40;;;;;;5050483;28;20467;-80
2022/07/28 07:53:25;;;;;;;21.10;19.55;;;20.50;55.90;;;;;;5050065;28;20053;-81
2022/07/28 07:55:51;;;;;;;22.73;21.08;;;20.50;57.20;;;;;;5051254;28;20405;-81
2022/07/28 07:58:17;;;;;;;22.35;20.75;;;20.70;57.70;;;;;;5050370;28;20025;-80
2022/07/28 08:00:43;;;;;;;19.42;18.15;;;20.70;58.20;;;;;;5051187;28;20414;-81
2022/07/28 08:03:09;;;;;;;22.95;21.48;;;20.70;56.70;;;;;;5051170;28;20025;-81
2022/07/28 08:05:35;;;;;;;19.25;17.95;;;20.60;57.70;;;;;;5051483;28;20033;-81
2022/07/28 08:08:04;;;;;;;26.13;23.70;;;20.70;58.40;;;;;;5050857;28;20055;-81
2022/07/28 08:10:31;;;;;;;24.13;22.40;;;20.80;57.40;;;;;;5050174;28;20048;-81
2022/07/28 08:12:57;;;;;;;19.75;18.52;;;21.00;57.90;;;;;;5051273;28;20025;-81
2022/07/28 08:15:23;;;;;;;19.98;18.60;;;21.20;56.80;;;;;;5051187;28;20059;-81
2022/07/28 08:17:49;;;;;;;21.67;20.20;;;21.30;55.90;;;;;;5051061;28;20037;-81
2022/07/28 08:20:15;;;;;;;19.95;18.70;;;21.40;56.40;;;;;;5049863;28;20040;-81
2022/07/28 08:22:53;;;;;;;20.80;18.55;;;21.50;55.60;;;;;;5050880;28;20021;-81
2022/07/28 08:25:19;;;;;;;20.90;19.40;;;21.50;54.90;;;;;;5049810;28;20499;-81
2022/07/28 08:27:45;;;;;;;20.88;19.38;;;21.50;53.90;;;;;;5049302;28;20057;-81
2022/07/28 08:30:13;;;;;;;21.67;19.55;;;21.50;54.20;;;;;;5050613;28;20390;-81
2022/07/28 08:32:40;;;;;;;21.27;19.20;;;21.70;54.10;;;;;;5049583;28;20040;-81
2022/07/28 08:35:07;;;;;;;22.60;20.73;;;21.80;53.60;;;;;;5049638;28;20036;-82
2022/07/28 08:37:33;;;;;;;22.40;20.08;;;21.80;53.60;;;;;;5050848;28;20391;-81
2022/07/28 08:39:59;;;;;;;20.83;19.27;;;21.90;53.30;;;;;;5050777;28;20390;-81
2022/07/28 08:42:34;;;;;;;22.05;20.50;;;21.90;53.20;;;;;;5049648;28;20041;-81
2022/07/28 08:45:02;;;;;;;23.02;21.20;;;22.00;53.30;;;;;;5038196;28;20511;-81
2022/07/28 08:47:30;;;;;;;22.35;20.92;;;22.10;53.50;;;;;;5048904;28;20045;-81
2022/07/28 08:49:58;;;;;;;23.17;21.40;;;22.30;52.80;;;;;;5049594;28;20039;-82
2022/07/28 08:52:24;;;;;;;23.42;21.52;;;22.30;52.40;;;;;;5049220;28;20044;-81
2022/07/28 08:54:50;;;;;;;23.98;22.08;;;22.50;52.10;;;;;;5032990;28;20399;-81
2022/07/28 08:57:24;;;;;;;24.30;22.40;;;22.60;51.60;;;;;;5049483;28;20475;-82
2022/07/28 08:59:50;;;;;;;25.05;22.88;;;22.70;51.60;;;;;;5049585;28;20073;-81
2022/07/28 09:02:17;;;;;;;25.88;23.98;;;22.70;51.60;;;;;;5048952;28;20502;-81
2022/07/28 09:04:44;;;;;;;24.65;23.30;;;23.00;50.90;;;;;;5049510;28;20044;-81
2022/07/28 09:07:11;;;;;;;27.80;26.05;;;23.10;50.60;;;;;;5050168;28;20414;-81
2022/07/28 09:09:38;;;;;;;27.25;25.65;;;23.30;50.30;;;;;;5052388;28;20033;-81
2022/07/28 09:12:04;;;;;;;27.85;26.27;;;23.40;49.40;;;;;;5054988;28;20045;-82
2022/07/28 09:14:31;;;;;;;26.98;25.58;;;23.40;49.30;;;;;;5053628;28;20052;-83
2022/07/28 09:17:00;;;;;;;30.23;28.23;;;23.60;48.00;;;;;;5036092;28;20041;-82
2022/07/28 09:19:29;;;;;;;30.15;28.50;;;23.80;49.30;;;;;;5054136;28;20509;-81
2022/07/28 09:21:55;;;;;;;29.23;27.63;;;24.20;47.50;;;;;;5053177;28;20033;-82
2022/07/28 09:24:40;;;;;;;28.83;27.33;;;24.30;47.40;;;;;;5053165;28;20029;-82
2022/07/28 09:27:11;;;;;;;29.25;27.52;;;24.30;47.40;;;;;;5054123;28;20048;-82
2022/07/28 09:29:38;;;;;;;32.10;30.40;;;24.30;47.60;;;;;;5036409;28;20037;-82
2022/07/28 09:32:05;;;;;;;31.38;29.58;;;24.40;47.40;;;;;;5053749;28;20033;-82
2022/07/28 09:34:44;;;;;;;31.33;29.63;;;24.60;46.90;;;;;;5053565;28;20033;-82
2022/07/28 09:37:19;;;;;;;31.88;30.13;;;24.90;46.70;;;;;;5053063;28;20029;-83
2022/07/28 09:39:46;;;;;;;32.42;30.80;;;25.30;46.10;;;;;;5036608;28;20017;-82
2022/07/28 09:42:12;;;;;;;32.28;30.63;;;25.50;45.00;;;;;;5032896;28;20033;-82
2022/07/28 09:44:38;;;;;;;31.77;30.08;;;25.40;45.20;;;;;;5045645;28;20037;-82
2022/07/28 09:47:21;;;;;;;31.70;29.83;;;25.30;44.90;;;;;;5053375;28;20045;-82
2022/07/28 09:49:47;;;;;;;32.15;30.13;;;25.30;45.20;;;;;;5052083;28;20044;-82
2022/07/28 09:52:13;;;;;;;31.73;29.77;;;25.40;45.40;;;;;;5054015;28;20028;-83
2022/07/28 09:54:44;;;;;;;33.97;32.05;;;25.50;45.20;;;;;;5036069;28;20025;-82
2022/07/28 09:57:10;;;;;;;35.83;33.45;;;25.50;44.40;;;;;;5036838;28;20037;-82
2022/07/28 09:59:41;;;;;;;35.83;33.97;;;25.60;45.00;;;;;;5052136;28;20040;-82
2022/07/28 10:02:07;;;;;;;;;;;25.90;44.30;;;;;;5052636;28;20044;-83
2022/07/28 10:04:35;;;;;;;34.22;32.20;;;26.30;44.70;;;;;;5053316;28;19951;-82
2022/07/28 10:07:04;;;;;;;39.10;36.75;;;26.40;42.90;;;;;;5035809;28;20044;-82
2022/07/28 10:09:30;;;;;;;530.72;279.08;;;26.60;43.40;;;;;;5052052;28;20037;-83
2022/07/28 10:12:18;;;;;;;41.47;39.38;;;26.80;43.00;;;;;;5053487;28;20029;-83
2022/07/28 10:14:45;;;;;;;1999.90;999.90;;;26.90;41.70;;;;;;5052355;28;20029;-83
2022/07/28 10:17:25;;;;;;;45.70;43.15;;;27.20;42.00;;;;;;5051727;28;20040;-83
2022/07/28 10:19:53;;;;;;;1999.90;999.90;;;27.20;41.80;;;;;;5051703;28;20021;-83
2022/07/28 10:22:21;;;;;;;1999.90;999.90;;;27.50;41.40;;;;;;5051545;28;20037;-83
2022/07/28 10:24:48;;;;;;;1999.90;999.90;;;27.80;40.70;;;;;;5052134;28;20025;-83
2022/07/28 10:27:14;;;;;;;1999.90;999.90;;;28.20;39.30;;;;;;5035579;28;20063;-83
2022/07/28 10:29:41;;;;;;;1999.90;999.90;;;28.30;38.90;;;;;;5051958;28;20028;-83
2022/07/28 10:32:07;;;;;;;1999.90;999.90;;;28.10;39.10;;;;;;5034734;28;20044;-83
2022/07/28 10:34:38;;;;;;;1999.90;999.90;;;28.20;38.70;;;;;;5044058;28;20026;-83
2022/07/28 10:37:05;;;;;;;;;;;28.30;39.00;;;;;;5032214;28;20033;-83
2022/07/28 10:39:41;;;;;;;1999.90;999.90;;;28.40;38.40;;;;;;5047551;28;19909;-83
2022/07/28 10:42:10;;;;;;;1999.90;999.90;;;28.60;37.80;;;;;;5051827;28;20036;-83
2022/07/28 10:44:37;;;;;;;1999.90;999.90;;;28.40;37.80;;;;;;5041324;28;20036;-83
2022/07/28 10:47:09;;;;;;;1999.90;999.90;;;28.40;38.00;;;;;;5050571;28;20049;-83
2022/07/28 10:49:35;;;;;;;1999.90;999.90;;;28.50;37.40;;;;;;5051488;28;20383;-83
2022/07/28 10:52:02;;;;;;;1999.90;999.90;;;28.50;37.10;;;;;;5051684;28;20382;-84
2022/07/28 10:54:29;;;;;;;1999.90;999.90;;;28.80;37.30;;;;;;5051626;28;20406;-83
2022/07/28 10:56:56;;;;;;;1999.90;999.90;;;29.30;35.30;;;;;;5051682;28;20467;-83
2022/07/28 10:59:37;;;;;;;1999.90;999.90;;;29.40;35.40;;;;;;5051500;28;20024;-83
2022/07/28 11:02:04;;;;;;;1999.90;999.90;;;29.70;35.40;;;;;;5050668;28;20036;-84
2022/07/28 11:04:46;;;;;;;1999.90;999.90;;;29.40;32.70;;;;;;5051619;28;20475;-83
2022/07/28 11:07:14;;;;;;;1999.90;999.90;;;29.20;34.40;;;;;;5052170;28;20052;-83
2022/07/28 11:09:40;;;;;;;1999.90;999.90;;;29.40;34.00;;;;;;5052512;28;20052;-83
2022/07/28 11:12:06;;;;;;;1999.90;999.90;;;29.70;33.40;;;;;;5052344;28;20029;-84
2022/07/28 11:14:35;;;;;;;1999.90;999.90;;;30.10;32.40;;;;;;5050496;28;20037;-84
2022/07/28 11:17:04;;;;;;;1999.90;999.90;;;29.90;31.50;;;;;;5051540;28;20159;-83
2022/07/28 11:19:31;;;;;;;1999.90;999.90;;;29.70;32.60;;;;;;5052227;28;20024;-84
2022/07/28 11:22:18;;;;;;;1999.90;999.90;;;29.40;33.00;;;;;;5034030;28;20037;-83
2022/07/28 11:24:56;;;;;;;1999.90;999.90;;;29.00;34.30;;;;;;5051979;28;20041;-83
2022/07/28 11:27:48;;;;;;;1999.90;999.90;;;29.10;33.90;;;;;;5052173;28;20045;-84
2022/07/28 11:32:59;;;;;;;1999.90;999.90;;;29.80;32.30;;;;;;5054766;28;20040;-83
2022/07/28 11:35:28;;;;;;;1999.90;999.90;;;29.90;31.40;;;;;;5050416;28;20036;-83
2022/07/28 11:38:00;;;;;;;1999.90;999.90;;;29.80;32.30;;;;;;5050967;28;20029;-84
2022/07/28 11:40:32;;;;;;;1999.90;999.90;;;29.50;32.00;;;;;;5031908;28;20025;-83
2022/07/28 11:43:25;;;;;;;1999.90;999.90;;;29.30;32.50;;;;;;5031948;28;20056;-83
2022/07/28 11:46:00;;;;;;;1999.90;999.90;;;29.00;33.20;;;;;;5042835;28;20048;-83
2022/07/28 11:48:28;;;;;;;1999.90;999.90;;;29.00;33.20;;;;;;5051634;28;20033;-84
2022/07/28 11:51:03;;;;;;;1999.90;999.90;;;28.80;33.20;;;;;;5050595;28;20051;-84
2022/07/28 11:53:34;;;;;;;1999.90;999.90;;;28.80;33.60;;;;;;5050143;28;20033;-84
2022/07/28 11:56:02;;;;;;;1999.90;999.90;;;28.80;33.60;;;;;;5051847;28;20401;-83
2022/07/28 11:58:28;;;;;;;1999.90;999.90;;;29.00;33.60;;;;;;5033305;28;20445;-83
2022/07/28 12:01:13;;;;;;;1999.90;999.90;;;29.30;33.00;;;;;;5050817;28;20021;-82
2022/07/28 12:03:41;;;;;;;1999.90;999.90;;;29.40;33.00;;;;;;5051414;28;20032;-84
2022/07/28 12:06:07;;;;;;;1999.90;999.90;;;29.50;32.70;;;;;;5051524;28;20021;-83
2022/07/28 12:08:55;;;;;;;1999.90;999.90;;;29.40;32.20;;;;;;5049914;28;20052;-83
2022/07/28 12:11:23;;;;;;;1999.90;999.90;;;29.20;32.20;;;;;;5047217;28;20041;-83
2022/07/28 12:14:05;;;;;;;1999.90;999.90;;;29.20;31.50;;;;;;5050754;28;20037;-83
2022/07/28 12:16:35;;;;;;;1999.90;999.90;;;29.20;33.00;;;;;;5049550;28;20060;-83
2022/07/28 12:19:02;;;;;;;1999.90;999.90;;;29.60;32.30;;;;;;5050114;28;20370;-83
2022/07/28 12:21:48;;;;;;;1999.90;999.90;;;29.90;31.40;;;;;;5050209;28;20044;-84
2022/07/28 12:24:31;;;;;;;1999.90;999.90;;;30.20;30.40;;;;;;5051051;28;20024;-83
2022/07/28 12:26:59;;;;;;;1999.90;999.90;;;30.20;30.80;;;;;;5050265;28;20025;-83
2022/07/28 12:29:30;;;;;;;1999.90;999.90;;;30.20;30.50;;;;;;5051054;28;20025;-83
2022/07/28 12:31:57;;;;;;;1999.90;999.90;;;30.00;30.60;;;;;;5050529;28;20036;-83
2022/07/28 12:34:24;;;;;;;1999.90;999.90;;;29.70;31.00;;;;;;5049383;28;20044;-83